createdAt,value
2018-08-11T00:01:36.076Z,18.10
2018-08-11T00:04:04.160Z,18.10
2018-08-11T00:06:32.338Z,18.00
2018-08-11T00:09:00.388Z,18.00
2018-08-11T00:11:28.431Z,17.80
2018-08-11T00:13:56.432Z,17.80
2018-08-11T00:16:24.447Z,17.80
2018-08-11T00:18:52.492Z,17.80
2018-08-11T00:21:20.515Z,17.70
2018-08-11T00:23:48.559Z,17.70
2018-08-11T00:26:16.578Z,17.70
2018-08-11T00:28:44.648Z,17.70
2018-08-11T00:31:12.596Z,17.80
2018-08-11T00:33:40.756Z,17.70
2018-08-11T00:36:08.758Z,17.80
2018-08-11T00:38:36.931Z,17.80
2018-08-11T00:41:05.064Z,17.80
2018-08-11T00:43:33.146Z,17.80
2018-08-11T00:46:01.136Z,17.80
2018-08-11T00:48:29.140Z,17.80
2018-08-11T00:50:57.111Z,17.70
2018-08-11T00:53:25.120Z,17.80
2018-08-11T00:55:53.099Z,17.70
2018-08-11T00:58:21.087Z,17.60
2018-08-11T01:00:49.065Z,17.60
2018-08-11T01:03:17.028Z,17.50
2018-08-11T01:05:44.986Z,17.50
2018-08-11T01:08:12.991Z,17.30
2018-08-11T01:10:41.038Z,17.30
2018-08-11T01:13:09.012Z,17.30
2018-08-11T01:15:37.669Z,17.20
2018-08-11T01:18:05.788Z,17.10
2018-08-11T01:20:33.850Z,17.10
2018-08-11T01:23:01.851Z,17.20
2018-08-11T01:25:29.841Z,17.20
2018-08-11T01:27:57.834Z,17.10
2018-08-11T01:30:25.840Z,17.10
2018-08-11T01:32:53.954Z,17.10
2018-08-11T01:35:21.891Z,17.20
2018-08-11T01:37:49.896Z,17.20
2018-08-11T01:40:18.296Z,17.10
2018-08-11T01:42:47.405Z,17.10
2018-08-11T01:45:15.995Z,17.00
2018-08-11T01:47:44.099Z,17.10
2018-08-11T01:50:13.327Z,17.00
2018-08-11T01:52:42.561Z,17.00
2018-08-11T01:55:11.948Z,17.00
2018-08-11T01:57:40.113Z,17.10
2018-08-11T02:00:10.232Z,17.00
2018-08-11T02:02:38.836Z,17.10
2018-08-11T02:05:07.339Z,17.10
2018-08-11T02:07:35.368Z,17.10
2018-08-11T02:10:04.261Z,17.00
2018-08-11T02:12:32.315Z,16.90
2018-08-11T02:15:00.408Z,16.80
2018-08-11T02:17:28.398Z,16.70
2018-08-11T02:19:56.368Z,16.70
2018-08-11T02:22:24.408Z,16.60
2018-08-11T02:24:52.515Z,16.60
2018-08-11T02:27:20.411Z,16.50
2018-08-11T02:29:48.472Z,16.50
2018-08-11T02:32:16.495Z,16.60
2018-08-11T02:34:44.494Z,16.50
2018-08-11T02:37:12.448Z,16.50
2018-08-11T02:39:40.479Z,16.60
2018-08-11T02:47:02.876Z,16.50
2018-08-11T02:49:31.043Z,16.60
2018-08-11T02:51:59.048Z,16.60
2018-08-11T02:54:27.081Z,16.60
2018-08-11T02:56:55.149Z,16.60
2018-08-11T02:59:23.688Z,16.60
2018-08-11T03:01:52.889Z,16.50
2018-08-11T03:04:21.157Z,16.50
2018-08-11T03:06:49.234Z,16.40
2018-08-11T03:09:17.232Z,16.50
2018-08-11T03:11:45.247Z,16.60
2018-08-11T03:14:13.196Z,16.60
2018-08-11T03:16:41.380Z,16.50
2018-08-11T03:19:10.308Z,16.50
2018-08-11T03:21:38.365Z,16.60
2018-08-11T03:24:06.644Z,16.70
2018-08-11T03:26:34.671Z,16.70
2018-08-11T03:29:02.717Z,16.70
2018-08-11T03:31:30.831Z,16.70
2018-08-11T03:33:58.860Z,16.70
2018-08-11T03:36:26.869Z,16.60
2018-08-11T03:38:54.867Z,16.60
2018-08-11T03:41:22.868Z,16.70
2018-08-11T03:43:50.912Z,16.90
2018-08-11T03:46:18.948Z,17.40
2018-08-11T03:48:47.016Z,17.50
2018-08-11T03:51:15.095Z,17.70
2018-08-11T03:53:43.096Z,17.80
2018-08-11T03:56:11.039Z,18.00
2018-08-11T03:58:39.099Z,18.00
2018-08-11T04:01:07.173Z,17.80
2018-08-11T04:03:35.218Z,17.50
2018-08-11T04:06:03.312Z,17.30
2018-08-11T04:08:31.819Z,17.20
2018-08-11T04:13:38.071Z,16.60
2018-08-11T04:16:06.493Z,16.50
2018-08-11T04:18:34.507Z,16.30
2018-08-11T04:21:02.636Z,16.30
2018-08-11T04:23:30.688Z,16.30
2018-08-11T04:25:58.668Z,16.20
2018-08-11T04:28:26.610Z,16.10
2018-08-11T04:30:54.593Z,16.10
2018-08-11T04:33:23.674Z,16.10
2018-08-11T04:35:51.638Z,16.10
2018-08-11T04:38:19.698Z,16.10
2018-08-11T04:40:47.884Z,15.90
2018-08-11T04:43:15.860Z,15.90
2018-08-11T04:45:43.931Z,16.00
2018-08-11T04:48:11.864Z,16.10
2018-08-11T04:50:39.834Z,16.10
2018-08-11T04:53:07.838Z,16.10
2018-08-11T04:55:35.795Z,16.10
2018-08-11T04:58:03.764Z,16.10
2018-08-11T05:00:31.793Z,16.00
2018-08-11T05:02:59.853Z,16.00
2018-08-11T05:05:27.904Z,16.00
2018-08-11T05:07:55.843Z,15.70
2018-08-11T05:10:23.871Z,15.70
2018-08-11T05:12:51.922Z,15.80
2018-08-11T05:15:19.972Z,15.80
2018-08-11T05:17:47.947Z,15.70
2018-08-11T05:20:15.968Z,15.70
2018-08-11T05:22:43.992Z,15.60
2018-08-11T05:25:12.520Z,15.60
2018-08-11T05:27:40.494Z,15.70
2018-08-11T05:30:09.002Z,15.70
2018-08-11T05:32:37.352Z,15.80
2018-08-11T05:35:05.684Z,15.80
2018-08-11T05:37:33.808Z,15.80
2018-08-11T05:40:01.829Z,15.90
2018-08-11T05:42:29.979Z,15.90
2018-08-11T05:44:57.979Z,15.90
2018-08-11T05:47:25.956Z,15.90
2018-08-11T05:49:54.112Z,15.80
2018-08-11T05:52:22.407Z,15.80
2018-08-11T05:54:50.476Z,15.70
2018-08-11T05:57:18.565Z,15.70
2018-08-11T05:59:46.573Z,15.70
2018-08-11T06:02:14.672Z,15.70
2018-08-11T06:04:43.309Z,15.70
2018-08-11T06:07:11.437Z,15.70
2018-08-11T06:09:39.434Z,15.60
2018-08-11T06:12:07.474Z,15.60
2018-08-11T06:14:35.559Z,15.60
2018-08-11T06:17:03.652Z,15.60
2018-08-11T06:19:31.849Z,15.50
2018-08-11T06:21:59.993Z,15.50
2018-08-11T06:24:28.030Z,15.60
2018-08-11T06:26:56.017Z,15.70
2018-08-11T06:29:24.078Z,15.70
2018-08-11T06:31:52.260Z,15.70
2018-08-11T06:34:20.263Z,15.80
2018-08-11T06:36:48.330Z,15.80
2018-08-11T06:39:16.373Z,15.80
2018-08-11T06:44:26.738Z,15.80
2018-08-11T06:46:54.858Z,15.90
2018-08-11T06:49:22.808Z,15.90
2018-08-11T06:51:50.802Z,15.90
2018-08-11T06:54:18.951Z,15.90
2018-08-11T06:56:46.952Z,15.90
2018-08-11T06:59:14.968Z,15.80
2018-08-11T07:01:42.940Z,15.60
2018-08-11T07:06:49.469Z,15.80
2018-08-11T07:09:17.575Z,15.90
2018-08-11T07:11:45.601Z,16.00
2018-08-11T07:14:14.293Z,16.10
2018-08-11T07:16:42.504Z,16.20
2018-08-11T07:21:48.020Z,16.30
2018-08-11T07:24:16.011Z,16.20
2018-08-11T07:26:44.671Z,16.30
2018-08-11T07:29:13.019Z,16.40
2018-08-11T07:31:41.008Z,16.50
2018-08-11T07:34:09.075Z,16.60
2018-08-11T07:39:14.753Z,16.80
2018-08-11T07:41:42.744Z,16.70
2018-08-11T07:44:10.707Z,17.00
2018-08-11T07:46:38.701Z,17.20
2018-08-11T07:49:06.748Z,17.30
2018-08-11T07:54:12.817Z,17.40
2018-08-11T07:56:40.904Z,17.40
2018-08-11T07:59:09.166Z,17.30
2018-08-11T08:01:37.293Z,17.30
2018-08-11T08:04:06.377Z,17.10
2018-08-11T08:06:34.440Z,17.10
2018-08-11T08:09:02.913Z,17.20
2018-08-11T08:11:30.921Z,17.40
2018-08-11T08:13:58.917Z,17.30
2018-08-11T08:16:26.976Z,17.40
2018-08-11T08:18:54.993Z,17.50
2018-08-11T08:21:23.015Z,17.60
2018-08-11T08:23:51.408Z,17.40
2018-08-11T08:26:19.549Z,17.30
2018-08-11T08:28:47.456Z,17.40
2018-08-11T08:31:15.439Z,17.60
2018-08-11T08:33:43.452Z,17.70
2018-08-11T08:38:50.950Z,17.50
2018-08-11T08:41:19.082Z,17.60
2018-08-11T08:43:47.413Z,17.90
2018-08-11T08:46:15.607Z,18.00
2018-08-11T08:48:43.590Z,17.90
2018-08-11T08:51:11.587Z,18.00
2018-08-11T08:53:39.649Z,17.80
2018-08-11T08:56:07.696Z,17.80
2018-08-11T08:58:35.733Z,17.60
2018-08-11T09:01:03.769Z,17.70
2018-08-11T09:03:31.826Z,17.80
2018-08-11T09:05:59.925Z,17.70
2018-08-11T09:08:27.978Z,17.70
2018-08-11T09:10:55.952Z,17.60
2018-08-11T09:13:23.984Z,17.60
2018-08-11T09:15:52.055Z,17.50
2018-08-11T09:18:20.036Z,17.70
2018-08-11T09:20:48.007Z,17.80
2018-08-11T09:23:16.173Z,18.00
2018-08-11T09:25:44.132Z,18.00
2018-08-11T09:28:12.128Z,18.20
2018-08-11T09:30:40.142Z,18.10
2018-08-11T09:33:08.121Z,18.20
2018-08-11T09:35:36.266Z,18.30
2018-08-11T09:38:04.424Z,18.20
2018-08-11T09:40:32.800Z,18.30
2018-08-11T09:43:00.863Z,18.40
2018-08-11T09:45:29.512Z,18.40
2018-08-11T09:48:00.310Z,18.40
2018-08-11T09:50:28.731Z,18.50
2018-08-11T09:52:56.919Z,18.60
2018-08-11T09:55:25.000Z,18.70
2018-08-11T09:57:53.041Z,18.70
2018-08-11T10:00:26.416Z,18.70
2018-08-11T10:02:54.403Z,19.10
2018-08-11T10:05:22.661Z,19.10
2018-08-11T10:07:50.724Z,19.30
2018-08-11T10:10:18.700Z,19.40
2018-08-11T10:12:46.964Z,19.60
2018-08-11T10:15:14.960Z,19.60
2018-08-11T10:17:43.044Z,19.40
2018-08-11T10:20:11.036Z,19.50
2018-08-11T10:22:39.024Z,19.60
2018-08-11T10:25:07.145Z,19.60
2018-08-11T10:27:35.145Z,19.50
2018-08-11T10:30:03.149Z,19.40
2018-08-11T10:32:31.241Z,19.50
2018-08-11T10:34:59.284Z,19.60
2018-08-11T10:37:27.344Z,19.50
2018-08-11T10:39:55.387Z,19.60
2018-08-11T10:42:23.442Z,19.70
2018-08-11T10:44:51.444Z,19.70
2018-08-11T10:47:19.453Z,19.80
2018-08-11T10:49:47.596Z,19.80
2018-08-11T10:52:15.617Z,19.90
2018-08-11T10:54:43.626Z,20.30
2018-08-11T10:57:11.555Z,20.60
2018-08-11T10:59:39.569Z,20.40
2018-08-11T11:02:07.597Z,20.30
2018-08-11T11:04:35.998Z,20.50
2018-08-11T11:07:04.053Z,20.10
2018-08-11T11:09:32.094Z,20.10
2018-08-11T11:12:00.143Z,20.30
2018-08-11T11:14:28.105Z,20.30
2018-08-11T11:16:56.130Z,20.40
2018-08-11T11:19:24.323Z,20.20
2018-08-11T11:21:52.600Z,20.30
2018-08-11T11:24:20.665Z,20.30
2018-08-11T11:26:48.646Z,20.40
2018-08-11T11:29:17.259Z,20.60
2018-08-11T11:31:45.244Z,20.50
2018-08-11T11:34:13.448Z,20.50
2018-08-11T11:36:41.512Z,20.50
2018-08-11T11:39:09.844Z,20.50
2018-08-11T11:41:38.817Z,20.80
2018-08-11T11:44:07.476Z,20.70
2018-08-11T11:46:35.456Z,20.70
2018-08-11T11:49:03.489Z,20.60
2018-08-11T11:51:31.762Z,20.30
2018-08-11T11:53:59.995Z,20.60
2018-08-11T11:56:28.156Z,20.90
2018-08-11T11:58:56.124Z,21.40
2018-08-11T12:01:24.194Z,22.00
2018-08-11T12:03:52.208Z,22.30
2018-08-11T12:06:20.219Z,23.00
2018-08-11T12:08:48.858Z,22.90
2018-08-11T12:11:16.929Z,23.80
2018-08-11T12:13:44.939Z,22.80
2018-08-11T12:16:13.021Z,22.50
2018-08-11T12:18:41.076Z,22.20
2018-08-11T12:21:09.175Z,21.80
2018-08-11T12:23:37.145Z,22.30
2018-08-11T12:26:05.208Z,23.90
2018-08-11T12:28:33.258Z,24.90
2018-08-11T12:31:01.407Z,25.40
2018-08-11T12:33:29.412Z,24.20
2018-08-11T12:35:57.641Z,23.20
2018-08-11T12:38:25.648Z,22.40
2018-08-11T12:40:53.618Z,21.70
2018-08-11T12:43:21.673Z,21.50
2018-08-11T12:45:49.841Z,21.00
2018-08-11T12:48:17.847Z,20.90
2018-08-11T12:50:45.816Z,20.80
2018-08-11T12:53:13.849Z,20.70
2018-08-11T12:55:41.868Z,20.50
2018-08-11T12:58:09.886Z,20.50
2018-08-11T13:00:37.900Z,20.50
2018-08-11T13:03:05.922Z,20.50
2018-08-11T13:05:33.919Z,20.90
2018-08-11T13:08:01.995Z,21.20
2018-08-11T13:10:30.376Z,21.20
2018-08-11T13:12:58.330Z,21.20
2018-08-11T13:15:26.283Z,21.00
2018-08-11T13:17:54.271Z,21.10
2018-08-11T13:20:22.269Z,21.20
2018-08-11T13:22:50.315Z,21.30
2018-08-11T13:25:18.427Z,21.50
2018-08-11T13:27:46.419Z,21.70
2018-08-11T13:30:14.665Z,22.00
2018-08-11T13:32:42.851Z,21.80
2018-08-11T13:35:10.969Z,21.70
2018-08-11T13:37:39.059Z,21.90
2018-08-11T13:40:13.576Z,21.60
2018-08-11T13:42:41.533Z,21.30
2018-08-11T13:45:09.661Z,21.10
2018-08-11T13:47:37.724Z,21.50
2018-08-11T13:50:06.488Z,21.50
2018-08-11T13:52:34.656Z,21.40
2018-08-11T13:55:02.834Z,21.10
2018-08-11T13:57:30.793Z,21.10
2018-08-11T13:59:58.803Z,21.00
2018-08-11T14:02:26.844Z,21.00
2018-08-11T14:04:54.835Z,21.40
2018-08-11T14:07:22.863Z,21.70
2018-08-11T14:09:50.891Z,23.00
2018-08-11T14:12:19.005Z,24.70
2018-08-11T14:14:47.098Z,26.20
2018-08-11T14:17:15.180Z,24.60
2018-08-11T14:19:43.241Z,24.30
2018-08-11T14:22:11.271Z,24.30
2018-08-11T14:24:39.360Z,25.70
2018-08-11T14:27:07.371Z,26.30
2018-08-11T14:29:35.416Z,26.50
2018-08-11T14:32:03.481Z,25.70
2018-08-11T14:34:31.757Z,26.80
2018-08-11T14:36:59.782Z,27.60
2018-08-11T14:39:27.943Z,28.00
2018-08-11T14:41:56.082Z,28.30
2018-08-11T14:44:24.135Z,27.90
2018-08-11T14:46:52.158Z,26.40
2018-08-11T14:49:20.171Z,24.10
2018-08-11T14:51:48.250Z,23.10
2018-08-11T14:54:16.217Z,22.70
2018-08-11T14:56:44.194Z,22.40
2018-08-11T14:59:12.228Z,22.20
2018-08-11T15:01:40.350Z,22.10
2018-08-11T15:04:08.351Z,22.00
2018-08-11T15:06:36.340Z,21.60
2018-08-11T15:09:06.698Z,21.20
2018-08-11T15:11:34.671Z,21.30
2018-08-11T15:14:02.894Z,21.30
2018-08-11T15:16:30.964Z,20.60
2018-08-11T15:18:59.039Z,20.70
2018-08-11T15:21:27.018Z,20.60
2018-08-11T15:23:55.028Z,20.70
2018-08-11T15:26:23.078Z,20.90
2018-08-11T15:28:51.991Z,21.30
2018-08-11T15:31:20.020Z,21.30
2018-08-11T15:33:47.997Z,21.40
2018-08-11T15:36:16.203Z,21.40
2018-08-11T15:38:44.174Z,21.60
2018-08-11T15:41:12.252Z,21.90
2018-08-11T15:43:40.244Z,22.50
2018-08-11T15:46:08.207Z,23.20
2018-08-11T15:48:36.360Z,23.40
2018-08-11T15:51:04.412Z,23.20
2018-08-11T15:53:32.879Z,23.70
2018-08-11T15:56:01.606Z,24.00
2018-08-11T15:58:30.611Z,24.00
2018-08-11T16:00:58.590Z,23.30
2018-08-11T16:03:26.631Z,23.90
2018-08-11T16:05:54.579Z,24.40
2018-08-11T16:08:22.589Z,24.60
2018-08-11T16:10:50.596Z,24.30
2018-08-11T16:13:18.687Z,24.00
2018-08-11T16:15:46.667Z,23.30
2018-08-11T16:18:14.672Z,22.80
2018-08-11T16:20:42.720Z,22.50
2018-08-11T16:23:10.693Z,22.20
2018-08-11T16:25:38.660Z,22.00
2018-08-11T16:28:06.912Z,22.00
2018-08-11T16:30:34.874Z,21.80
2018-08-11T16:33:02.912Z,21.50
2018-08-11T16:35:31.119Z,21.60
2018-08-11T16:37:59.122Z,21.40
2018-08-11T16:40:27.073Z,21.50
2018-08-11T16:42:55.038Z,21.70
2018-08-11T16:45:23.044Z,21.80
2018-08-11T16:47:51.102Z,21.60
2018-08-11T16:50:19.342Z,21.80
2018-08-11T16:52:47.426Z,22.20
2018-08-11T16:55:15.428Z,22.50
2018-08-11T16:57:43.416Z,22.50
2018-08-11T17:00:12.976Z,22.80
2018-08-11T17:02:41.534Z,22.80
2018-08-11T17:05:09.485Z,22.40
2018-08-11T17:07:37.484Z,22.20
2018-08-11T17:10:06.884Z,22.10
2018-08-11T17:12:34.846Z,22.10
2018-08-11T17:15:02.969Z,22.60
2018-08-11T17:17:31.009Z,22.60
2018-08-11T17:19:59.016Z,22.60
2018-08-11T17:22:27.029Z,22.30
2018-08-11T17:24:55.008Z,22.00
2018-08-11T17:27:23.727Z,21.70
2018-08-11T17:29:51.858Z,21.60
2018-08-11T17:32:19.839Z,21.60
2018-08-11T17:34:47.862Z,21.80
2018-08-11T17:37:15.862Z,21.80
2018-08-11T17:39:43.844Z,22.00
2018-08-11T17:42:11.820Z,22.10
2018-08-11T17:44:39.870Z,22.40
2018-08-11T17:47:07.966Z,22.40
2018-08-11T17:49:36.041Z,22.20
2018-08-11T17:52:04.096Z,22.20
2018-08-11T17:54:32.126Z,22.00
2018-08-11T17:57:00.333Z,22.10
2018-08-11T17:59:28.385Z,22.00
2018-08-11T18:01:56.513Z,21.70
2018-08-11T18:04:24.546Z,21.60
2018-08-11T18:06:52.554Z,21.50
2018-08-11T18:09:20.648Z,21.50
2018-08-11T18:11:48.675Z,21.40
2018-08-11T18:14:16.687Z,21.20
2018-08-11T18:16:44.728Z,21.30
2018-08-11T18:19:12.761Z,21.10
2018-08-11T18:21:40.810Z,21.10
2018-08-11T18:24:08.851Z,21.00
2018-08-11T18:26:36.893Z,20.90
2018-08-11T18:29:05.253Z,20.80
2018-08-11T18:31:33.442Z,20.80
2018-08-11T18:34:01.622Z,20.60
2018-08-11T18:36:29.647Z,20.50
2018-08-11T18:38:57.746Z,20.50
2018-08-11T18:41:25.794Z,20.50
2018-08-11T18:43:54.775Z,20.40
2018-08-11T18:46:22.834Z,20.30
2018-08-11T18:48:50.883Z,20.30
2018-08-11T18:51:18.873Z,20.20
2018-08-11T18:53:46.991Z,20.20
2018-08-11T18:56:14.955Z,20.20
2018-08-11T18:58:42.976Z,20.10
2018-08-11T19:01:10.971Z,20.10
2018-08-11T19:03:39.043Z,20.00
2018-08-11T19:06:07.065Z,20.00
2018-08-11T19:08:35.114Z,20.00
2018-08-11T19:11:03.140Z,20.00
2018-08-11T19:13:31.146Z,20.00
2018-08-11T19:15:59.124Z,19.90
2018-08-11T19:18:27.249Z,19.90
2018-08-11T19:20:55.389Z,19.80
2018-08-11T19:23:23.448Z,19.80
2018-08-11T19:25:51.450Z,19.80
2018-08-11T19:28:19.453Z,19.70
2018-08-11T19:30:47.489Z,19.60
2018-08-11T19:33:15.508Z,19.50
2018-08-11T19:35:43.518Z,19.50
2018-08-11T19:38:11.517Z,19.40
2018-08-11T19:40:39.524Z,19.40
2018-08-11T19:43:07.528Z,19.40
2018-08-11T19:45:35.626Z,19.30
2018-08-11T19:48:03.630Z,19.30
2018-08-11T19:50:31.697Z,19.30
2018-08-11T19:52:59.720Z,19.20
2018-08-11T19:55:27.770Z,19.10
2018-08-11T19:57:55.815Z,19.10
2018-08-11T20:00:26.557Z,19.10
2018-08-11T20:02:54.530Z,19.10
2018-08-11T20:05:22.529Z,18.90
2018-08-11T20:07:50.554Z,18.90
2018-08-11T20:10:18.575Z,18.90
2018-08-11T20:12:46.650Z,18.90
2018-08-11T20:15:14.615Z,18.90
2018-08-11T20:17:42.636Z,18.80
2018-08-11T20:20:11.238Z,18.80
2018-08-11T20:22:39.310Z,18.80
2018-08-11T20:25:07.529Z,18.80
2018-08-11T20:27:35.545Z,19.30
2018-08-11T20:30:04.440Z,19.50
2018-08-11T20:32:32.440Z,19.70
2018-08-11T20:35:00.485Z,19.80
2018-08-11T20:37:28.532Z,19.80
2018-08-11T20:39:56.604Z,19.90
2018-08-11T20:42:24.607Z,19.80
2018-08-11T20:44:52.602Z,19.80
2018-08-11T20:47:20.614Z,19.70
2018-08-11T20:49:48.588Z,19.60
2018-08-11T20:52:16.605Z,19.60
2018-08-11T20:54:44.555Z,19.60
2018-08-11T20:57:12.532Z,19.50
2018-08-11T20:59:40.525Z,19.50
2018-08-11T21:02:08.510Z,19.40
2018-08-11T21:04:36.541Z,19.50
2018-08-11T21:07:04.607Z,19.50
2018-08-11T21:09:32.644Z,19.40
2018-08-11T21:12:00.640Z,19.30
2018-08-11T21:14:28.624Z,19.10
2018-08-11T21:16:57.319Z,19.10
2018-08-11T21:19:25.313Z,19.00
2018-08-11T21:21:53.340Z,18.80
2018-08-11T21:24:21.317Z,18.60
2018-08-11T21:26:49.254Z,18.50
2018-08-11T21:29:17.207Z,18.50
2018-08-11T21:31:45.213Z,18.40
2018-08-11T21:34:13.219Z,18.40
2018-08-11T21:36:41.337Z,18.40
2018-08-11T21:39:11.354Z,18.40
2018-08-11T21:41:39.420Z,18.30
2018-08-11T21:44:07.471Z,18.20
2018-08-11T21:46:35.737Z,18.30
2018-08-11T21:49:03.743Z,18.30
2018-08-11T21:51:31.788Z,18.30
2018-08-11T21:53:59.819Z,18.20
2018-08-11T21:56:27.834Z,18.00
2018-08-11T21:58:55.760Z,18.00
2018-08-11T22:01:23.745Z,17.90
2018-08-11T22:03:51.788Z,17.80
2018-08-11T22:06:19.988Z,17.70
2018-08-11T22:08:47.981Z,17.60
2018-08-11T22:11:15.978Z,17.60
2018-08-11T22:13:44.016Z,17.60
2018-08-11T22:16:11.998Z,17.50
2018-08-11T22:18:40.095Z,17.50
2018-08-11T22:21:08.207Z,17.40
2018-08-11T22:23:36.344Z,17.40
2018-08-11T22:26:04.346Z,17.40
2018-08-11T22:28:32.516Z,17.40
2018-08-11T22:31:00.617Z,17.30
2018-08-11T22:33:28.789Z,17.30
2018-08-11T22:35:56.821Z,17.20
2018-08-11T22:38:24.885Z,17.20
2018-08-11T22:40:52.956Z,17.20
2018-08-11T22:43:20.976Z,17.20
2018-08-11T22:45:48.981Z,17.10
2018-08-11T22:48:16.981Z,17.10
2018-08-11T22:50:44.933Z,17.10
2018-08-11T22:53:13.012Z,17.00
2018-08-11T22:55:40.991Z,17.00
2018-08-11T22:58:09.032Z,17.20
2018-08-11T23:00:37.071Z,17.30
2018-08-11T23:03:05.400Z,17.60
2018-08-11T23:05:33.379Z,17.70
2018-08-11T23:08:01.432Z,17.70
2018-08-11T23:10:29.623Z,17.70
2018-08-11T23:12:57.626Z,17.60
2018-08-11T23:15:25.570Z,17.50
2018-08-11T23:17:53.562Z,17.30
2018-08-11T23:20:26.503Z,17.30
2018-08-11T23:22:54.487Z,17.40
2018-08-11T23:25:22.649Z,17.10
2018-08-11T23:27:50.768Z,17.00
2018-08-11T23:30:18.908Z,16.90
2018-08-11T23:32:46.937Z,16.80
2018-08-11T23:35:15.074Z,16.80
2018-08-11T23:37:43.398Z,16.80
2018-08-11T23:40:11.654Z,16.80
2018-08-11T23:42:39.905Z,16.70
2018-08-11T23:45:13.464Z,16.60
2018-08-11T23:47:41.960Z,16.70
2018-08-11T23:50:10.947Z,16.90
2018-08-11T23:52:39.469Z,16.80
2018-08-11T23:55:08.310Z,16.80
2018-08-11T23:57:36.772Z,16.60
